Time;durP1;ratioP1;P1;durP2;ratioP2;P2;SDS_P1;SDS_P2;PMS_P1;PMS_P2;Temp;Humidity;BMP_temperature;BMP_pressure;BME280_temperature;BME280_humidity;BME280_pressure;Samples;Min_cycle;Max_cycle;Signal;HPM_P1;HPM_P2
2021/08/21 00:01:29;;;;;;;0.40;0.20;;;16.30;99.90;;;;;;5072879;28;20375;-73
2021/08/21 00:03:54;;;;;;;0.40;0.30;;;16.20;99.90;;;;;;5073800;28;20384;-74
2021/08/21 00:06:20;;;;;;;0.40;0.30;;;16.30;99.90;;;;;;5072464;28;20799;-74
2021/08/21 00:08:45;;;;;;;0.40;0.20;;;16.20;99.90;;;;;;5073115;28;20499;-74
2021/08/21 00:11:11;;;;;;;0.40;0.40;;;16.20;99.90;;;;;;5073347;28;20376;-74
2021/08/21 00:13:36;;;;;;;0.40;0.30;;;16.30;99.90;;;;;;5072627;28;20386;-74
2021/08/21 00:16:02;;;;;;;0.40;0.30;;;16.30;99.90;;;;;;5072834;28;20437;-74
2021/08/21 00:18:28;;;;;;;0.40;0.20;;;16.30;99.90;;;;;;5072325;28;20376;-74
2021/08/21 00:20:53;;;;;;;0.40;0.20;;;16.30;99.90;;;;;;5073315;28;20494;-74
2021/08/21 00:23:19;;;;;;;0.40;0.20;;;16.30;99.90;;;;;;5071914;28;20477;-74
2021/08/21 00:25:45;;;;;;;0.40;0.30;;;16.40;99.90;;;;;;5072684;28;20877;-74
2021/08/21 00:28:10;;;;;;;0.40;0.30;;;16.30;99.90;;;;;;5073016;28;20408;-74
2021/08/21 00:30:36;;;;;;;0.40;0.20;;;16.20;99.90;;;;;;5072352;28;20415;-74
2021/08/21 00:33:02;;;;;;;0.40;0.20;;;16.20;99.90;;;;;;5072861;28;20471;-74
2021/08/21 00:35:28;;;;;;;0.40;0.20;;;16.10;99.90;;;;;;5072528;28;20383;-74
2021/08/21 00:37:54;;;;;;;0.40;0.20;;;16.10;99.90;;;;;;5072507;28;20386;-74
2021/08/21 00:40:19;;;;;;;0.40;0.30;;;16.10;99.90;;;;;;5072163;28;20372;-74
2021/08/21 00:42:45;;;;;;;0.40;0.30;;;16.10;99.90;;;;;;5072464;28;20375;-74
2021/08/21 00:45:11;;;;;;;0.40;0.30;;;16.10;99.90;;;;;;5072665;28;20386;-74
2021/08/21 00:47:37;;;;;;;0.40;0.20;;;16.10;99.90;;;;;;5071868;28;20704;-74
2021/08/21 00:50:03;;;;;;;0.40;0.30;;;16.00;99.90;;;;;;5072452;28;20968;-74
2021/08/21 00:52:31;;;;;;;0.40;0.30;;;16.00;99.90;;;;;;5071762;28;20408;-73
2021/08/21 00:54:57;;;;;;;0.40;0.30;;;16.00;99.90;;;;;;5072272;28;20384;-74
2021/08/21 00:57:27;;;;;;;0.40;0.30;;;15.90;99.90;;;;;;5071632;28;20388;-74
2021/08/21 00:59:54;;;;;;;0.40;0.30;;;15.80;99.90;;;;;;5072689;28;20376;-74
2021/08/21 01:02:20;;;;;;;0.40;0.30;;;16.00;99.90;;;;;;5071368;28;20398;-74
2021/08/21 01:04:49;;;;;;;0.40;0.30;;;16.10;99.90;;;;;;5072196;28;20380;-74
2021/08/21 01:07:23;;;;;;;0.40;0.20;;;16.00;99.90;;;;;;5072037;28;20380;-74
2021/08/21 01:09:48;;;;;;;0.40;0.30;;;15.90;99.90;;;;;;5072205;28;20382;-74
2021/08/21 01:12:17;;;;;;;0.40;0.20;;;15.80;99.90;;;;;;5072083;28;20735;-74
2021/08/21 01:14:45;;;;;;;0.40;0.30;;;15.80;99.90;;;;;;5071812;28;20384;-74
2021/08/21 01:17:14;;;;;;;0.40;0.30;;;15.80;99.90;;;;;;5071715;28;20383;-74
2021/08/21 01:19:43;;;;;;;0.40;0.30;;;15.70;99.90;;;;;;5071360;28;20384;-74
2021/08/21 01:22:11;;;;;;;0.40;0.20;;;15.80;99.90;;;;;;5071623;28;20725;-75
2021/08/21 01:24:39;;;;;;;0.40;0.30;;;15.90;99.90;;;;;;5071074;28;20445;-74
2021/08/21 01:27:04;;;;;;;0.40;0.30;;;15.80;99.90;;;;;;5071052;28;20394;-74
2021/08/21 01:29:30;;;;;;;0.40;0.20;;;15.90;99.90;;;;;;5071192;28;20384;-73
2021/08/21 01:31:56;;;;;;;0.40;0.30;;;15.80;99.90;;;;;;5072016;28;20467;-74
2021/08/21 01:34:22;;;;;;;0.40;0.30;;;15.80;99.90;;;;;;5071003;28;20437;-73
2021/08/21 01:36:50;;;;;;;0.40;0.30;;;15.70;99.90;;;;;;5071651;28;20433;-73
2021/08/21 01:39:17;;;;;;;0.40;0.20;;;15.70;99.90;;;;;;5071526;28;20374;-73
2021/08/21 01:41:43;;;;;;;0.40;0.30;;;15.80;99.90;;;;;;5070668;28;20462;-74
2021/08/21 01:44:18;;;;;;;0.40;0.20;;;15.80;99.90;;;;;;5071348;28;20898;-73
2021/08/21 01:46:48;;;;;;;0.40;0.40;;;15.80;99.90;;;;;;5070915;28;20506;-74
2021/08/21 01:49:16;;;;;;;0.40;0.20;;;15.80;99.90;;;;;;5071711;28;20404;-74
2021/08/21 01:51:47;;;;;;;0.40;0.20;;;15.70;99.90;;;;;;5070706;28;20407;-74
2021/08/21 01:54:23;;;;;;;0.40;0.30;;;15.70;99.90;;;;;;5071557;28;20388;-73
2021/08/21 01:56:54;;;;;;;0.40;0.30;;;15.60;99.90;;;;;;5071178;28;20423;-72
2021/08/21 01:59:24;;;;;;;0.40;0.20;;;15.50;99.90;;;;;;5071099;28;20510;-73
2021/08/21 02:01:50;;;;;;;0.40;0.20;;;15.50;99.90;;;;;;5071207;28;20433;-75
2021/08/21 02:04:16;;;;;;;0.40;0.30;;;15.50;99.90;;;;;;5071419;28;20379;-73
2021/08/21 02:06:42;;;;;;;0.40;0.28;;;15.60;99.90;;;;;;5070603;28;21026;-75
2021/08/21 02:09:09;;;;;;;0.40;0.20;;;15.70;99.90;;;;;;5071158;28;20412;-73
2021/08/21 02:11:35;;;;;;;0.68;0.47;;;15.70;99.90;;;;;;5070541;28;20384;-73
2021/08/21 02:14:00;;;;;;;0.40;0.20;;;15.60;99.90;;;;;;5071173;28;20387;-72
2021/08/21 02:16:27;;;;;;;0.40;0.20;;;15.40;99.90;;;;;;5070285;28;20855;-73
2021/08/21 02:18:53;;;;;;;0.40;0.20;;;15.40;99.90;;;;;;5071203;28;20482;-73
2021/08/21 02:21:19;;;;;;;0.40;0.30;;;15.40;99.90;;;;;;5070835;28;20470;-73
2021/08/21 02:23:46;;;;;;;0.40;0.22;;;15.60;99.90;;;;;;5070658;28;20495;-72
2021/08/21 02:26:12;;;;;;;0.40;0.20;;;15.60;99.90;;;;;;5071134;28;20512;-73
2021/08/21 02:28:38;;;;;;;0.40;0.30;;;15.50;99.90;;;;;;5070323;28;20879;-73
2021/08/21 02:31:04;;;;;;;0.40;0.30;;;15.40;99.90;;;;;;5071113;28;20380;-73
2021/08/21 02:33:30;;;;;;;0.40;0.30;;;15.40;99.90;;;;;;5070170;28;20462;-73
2021/08/21 02:35:56;;;;;;;0.40;0.20;;;15.40;99.90;;;;;;5070828;28;20375;-74
2021/08/21 02:38:24;;;;;;;0.40;0.20;;;15.40;99.90;;;;;;5071021;28;20743;-73
2021/08/21 02:40:50;;;;;;;0.40;0.30;;;15.40;99.90;;;;;;5074661;28;20386;-74
2021/08/21 02:43:16;;;;;;;0.40;0.20;;;15.40;99.90;;;;;;5074945;28;20367;-73
2021/08/21 02:45:41;;;;;;;0.40;0.30;;;15.50;99.90;;;;;;5074075;28;20380;-73
2021/08/21 02:48:07;;;;;;;0.40;0.20;;;15.40;99.90;;;;;;5074711;28;20404;-73
2021/08/21 02:50:33;;;;;;;0.40;0.20;;;15.20;99.90;;;;;;5073919;28;20384;-72
2021/08/21 02:52:58;;;;;;;0.40;0.30;;;15.30;99.90;;;;;;5074907;28;20407;-74
2021/08/21 02:55:24;;;;;;;0.40;0.30;;;15.20;99.90;;;;;;5074987;28;20870;-74
2021/08/21 02:57:50;;;;;;;0.40;0.20;;;15.20;99.90;;;;;;5074893;28;20476;-74
2021/08/21 03:00:16;;;;;;;0.40;0.20;;;15.20;99.90;;;;;;5074213;28;20437;-74
2021/08/21 03:02:42;;;;;;;0.40;0.30;;;15.20;99.90;;;;;;5073704;28;20382;-73
2021/08/21 03:05:08;;;;;;;0.40;0.30;;;15.20;99.90;;;;;;5074615;28;20380;-73
2021/08/21 03:07:33;;;;;;;0.40;0.20;;;15.10;99.90;;;;;;5073755;28;20767;-73
2021/08/21 03:09:59;;;;;;;0.40;0.20;;;15.20;99.90;;;;;;5074319;28;20467;-73
2021/08/21 03:12:26;;;;;;;0.40;0.20;;;15.20;99.90;;;;;;5074363;28;20463;-73
2021/08/21 03:14:51;;;;;;;0.40;0.30;;;15.20;99.90;;;;;;5074150;28;20376;-73
2021/08/21 03:17:17;;;;;;;0.40;0.30;;;15.30;99.90;;;;;;5074004;28;20439;-73
2021/08/21 03:19:43;;;;;;;0.40;0.20;;;15.30;99.90;;;;;;5073592;28;20380;-73
2021/08/21 03:22:09;;;;;;;0.40;0.20;;;15.40;99.90;;;;;;5055874;28;20446;-73
2021/08/21 03:24:34;;;;;;;0.40;0.30;;;15.20;99.90;;;;;;5073252;28;20376;-73
2021/08/21 03:27:00;;;;;;;0.40;0.20;;;15.10;99.90;;;;;;5074073;28;20425;-73
2021/08/21 03:29:26;;;;;;;0.40;0.27;;;15.00;99.90;;;;;;5055937;28;20427;-73
2021/08/21 03:31:51;;;;;;;0.40;0.30;;;15.00;99.90;;;;;;5073075;28;20450;-73
2021/08/21 03:34:17;;;;;;;0.40;0.30;;;14.90;99.90;;;;;;5073972;28;20380;-73
2021/08/21 03:36:42;;;;;;;0.40;0.30;;;14.90;99.90;;;;;;5073368;28;20469;-73
2021/08/21 03:39:08;;;;;;;0.40;0.30;;;14.80;99.90;;;;;;5073987;28;20376;-73
2021/08/21 03:41:34;;;;;;;0.40;0.20;;;14.80;99.90;;;;;;5073050;28;20430;-73
2021/08/21 03:43:59;;;;;;;0.40;0.30;;;14.80;99.90;;;;;;5073911;28;20787;-73
2021/08/21 03:46:25;;;;;;;0.40;0.30;;;15.00;99.90;;;;;;5073493;28;20386;-73
2021/08/21 03:48:53;;;;;;;0.40;0.20;;;15.00;99.90;;;;;;5073036;28;20434;-73
2021/08/21 03:51:19;;;;;;;0.40;0.20;;;15.00;99.90;;;;;;5073083;28;20466;-73
2021/08/21 03:53:44;;;;;;;0.40;0.20;;;15.10;99.90;;;;;;5071756;28;20494;-74
2021/08/21 03:56:10;;;;;;;0.40;0.20;;;15.00;99.90;;;;;;5073312;28;20375;-74
2021/08/21 03:58:36;;;;;;;0.40;0.30;;;15.00;99.90;;;;;;5072892;28;20396;-74
2021/08/21 04:01:01;;;;;;;0.40;0.30;;;14.80;99.90;;;;;;5073246;28;20380;-74
2021/08/21 04:03:27;;;;;;;0.40;0.30;;;14.80;99.90;;;;;;5073595;28;20375;-75
2021/08/21 04:05:52;;;;;;;0.40;0.30;;;14.80;99.90;;;;;;5072894;28;20467;-74
2021/08/21 04:08:18;;;;;;;0.40;0.30;;;14.80;99.90;;;;;;5073325;28;20407;-75
2021/08/21 04:10:44;;;;;;;0.40;0.20;;;14.80;99.90;;;;;;5073072;28;20450;-74
2021/08/21 04:13:09;;;;;;;0.40;0.20;;;14.90;99.90;;;;;;5073068;28;20851;-75
2021/08/21 04:15:35;;;;;;;0.40;0.20;;;14.90;99.90;;;;;;5072458;28;20840;-74
2021/08/21 04:18:00;;;;;;;0.40;0.20;;;14.80;99.90;;;;;;5073226;28;20392;-74
2021/08/21 04:20:26;;;;;;;0.40;0.20;;;14.80;99.90;;;;;;5073218;28;20859;-76
2021/08/21 04:22:52;;;;;;;0.40;0.20;;;14.80;99.90;;;;;;5072280;28;20415;-75
2021/08/21 04:25:17;;;;;;;0.40;0.30;;;14.80;99.90;;;;;;5072771;28;20411;-74
2021/08/21 04:27:43;;;;;;;0.40;0.20;;;14.80;99.90;;;;;;5072125;28;20416;-72
2021/08/21 04:30:09;;;;;;;0.40;0.30;;;14.80;99.90;;;;;;5072932;28;20457;-74
2021/08/21 04:32:35;;;;;;;0.40;0.30;;;14.80;99.90;;;;;;5072266;28;20387;-75
2021/08/21 04:35:00;;;;;;;0.40;0.22;;;14.80;99.90;;;;;;5073199;28;20395;-75
2021/08/21 04:37:26;;;;;;;0.40;0.20;;;14.80;99.90;;;;;;5072770;28;20460;-75
2021/08/21 04:39:52;;;;;;;0.40;0.30;;;14.90;99.90;;;;;;5072442;28;20794;-74
2021/08/21 04:42:18;;;;;;;0.40;0.30;;;14.80;99.90;;;;;;5072876;28;20459;-74
2021/08/21 04:44:43;;;;;;;0.40;0.20;;;14.90;99.90;;;;;;5072109;28;20808;-74
2021/08/21 04:47:10;;;;;;;0.40;0.30;;;14.80;99.90;;;;;;5072514;28;20382;-74
2021/08/21 04:49:35;;;;;;;0.40;0.20;;;15.00;99.90;;;;;;5071863;28;20840;-73
2021/08/21 04:52:01;;;;;;;0.40;0.20;;;14.90;99.90;;;;;;5072425;28;20418;-74
2021/08/21 04:54:27;;;;;;;0.40;0.20;;;15.00;99.90;;;;;;5072515;28;20807;-74
2021/08/21 04:56:53;;;;;;;0.40;0.30;;;15.00;99.90;;;;;;5071764;28;20470;-75
2021/08/21 04:59:19;;;;;;;0.40;0.30;;;15.10;99.90;;;;;;5072175;28;20386;-75
2021/08/21 05:01:44;;;;;;;0.40;0.30;;;15.20;99.90;;;;;;5070965;28;20844;-75
2021/08/21 05:04:10;;;;;;;0.40;0.20;;;15.30;99.90;;;;;;5072021;28;20383;-75
2021/08/21 05:06:35;;;;;;;0.40;0.20;;;15.20;99.90;;;;;;5071703;28;20451;-75
2021/08/21 05:09:01;;;;;;;0.40;0.30;;;15.10;99.90;;;;;;5072143;28;20522;-74
2021/08/21 05:11:26;;;;;;;0.40;0.30;;;15.20;99.90;;;;;;5072125;28;20510;-75
2021/08/21 05:13:52;;;;;;;0.40;0.30;;;15.30;99.90;;;;;;5071524;28;20987;-75
2021/08/21 05:16:18;;;;;;;0.40;0.30;;;15.30;99.90;;;;;;5072114;28;20380;-75
2021/08/21 05:18:49;;;;;;;0.40;0.30;;;15.30;99.90;;;;;;5071453;28;20752;-74
2021/08/21 05:21:25;;;;;;;0.40;0.20;;;15.20;99.90;;;;;;5071900;28;20388;-74
2021/08/21 05:23:51;;;;;;;0.40;0.20;;;15.40;99.90;;;;;;5071690;28;20755;-75
2021/08/21 05:26:16;;;;;;;0.40;0.30;;;15.20;99.90;;;;;;5071840;28;20387;-75
2021/08/21 05:28:42;;;;;;;0.40;0.20;;;15.20;99.90;;;;;;5071229;28;20412;-75
2021/08/21 05:31:07;;;;;;;0.40;0.20;;;15.10;99.90;;;;;;5071679;28;20376;-75
2021/08/21 05:33:34;;;;;;;0.40;0.30;;;15.20;99.90;;;;;;5071879;28;20392;-75
2021/08/21 05:35:59;;;;;;;0.40;0.25;;;15.20;99.90;;;;;;5071608;28;20382;-74
2021/08/21 05:38:25;;;;;;;0.40;0.20;;;15.30;99.90;;;;;;5071853;28;20563;-75
2021/08/21 05:40:51;;;;;;;0.40;0.20;;;15.50;99.90;;;;;;5070809;28;20709;-75
2021/08/21 05:43:16;;;;;;;0.40;0.30;;;15.60;99.90;;;;;;5071441;28;20384;-74
2021/08/21 05:45:42;;;;;;;0.40;0.20;;;15.60;99.90;;;;;;5070747;28;20372;-75
2021/08/21 05:48:08;;;;;;;0.40;0.30;;;15.60;99.90;;;;;;5071686;28;20403;-74
2021/08/21 05:50:34;;;;;;;0.40;0.30;;;15.70;99.90;;;;;;5071646;28;20387;-75
2021/08/21 05:52:59;;;;;;;0.40;0.20;;;15.60;99.90;;;;;;5071166;28;20887;-75
2021/08/21 05:55:25;;;;;;;0.40;0.20;;;15.60;99.90;;;;;;5071588;28;20368;-75
2021/08/21 05:57:51;;;;;;;0.40;0.30;;;15.80;99.90;;;;;;5070813;28;20379;-75
2021/08/21 06:00:17;;;;;;;0.40;0.30;;;15.80;99.90;;;;;;5071370;28;20385;-75
2021/08/21 06:02:43;;;;;;;0.40;0.30;;;15.90;99.90;;;;;;5070920;28;20376;-75
2021/08/21 06:05:13;;;;;;;0.40;0.30;;;15.80;99.90;;;;;;5071108;28;20871;-75
2021/08/21 06:07:39;;;;;;;0.40;0.30;;;15.80;99.90;;;;;;5070640;28;20752;-75
2021/08/21 06:10:06;;;;;;;0.40;0.30;;;15.90;99.90;;;;;;5071325;28;20371;-75
2021/08/21 06:12:32;;;;;;;0.40;0.30;;;16.00;99.90;;;;;;5071296;28;20410;-74
2021/08/21 06:14:58;;;;;;;0.40;0.30;;;16.10;99.90;;;;;;5070691;28;20416;-75
2021/08/21 06:17:23;;;;;;;0.40;0.20;;;16.10;99.90;;;;;;5071300;28;20462;-75
2021/08/21 06:19:49;;;;;;;0.40;0.20;;;16.10;99.90;;;;;;5070427;28;20861;-74
2021/08/21 06:22:14;;;;;;;0.40;0.20;;;16.10;99.90;;;;;;5071117;28;20408;-75
2021/08/21 06:24:43;;;;;;;0.40;0.30;;;16.30;99.90;;;;;;5070409;28;20379;-75
2021/08/21 06:27:09;;;;;;;0.40;0.30;;;16.40;99.90;;;;;;5071125;28;20387;-74
2021/08/21 06:29:35;;;;;;;0.40;0.30;;;16.40;99.90;;;;;;5071007;28;20422;-75
2021/08/21 06:32:05;;;;;;;0.40;0.20;;;16.60;99.90;;;;;;5070557;28;20471;-75
2021/08/21 06:34:33;;;;;;;0.40;0.20;;;16.70;99.90;;;;;;5071017;28;20856;-75
2021/08/21 06:37:00;;;;;;;0.40;0.30;;;16.80;99.90;;;;;;5070606;28;20392;-75
2021/08/21 06:39:25;;;;;;;0.40;0.20;;;16.70;99.90;;;;;;5071075;28;20383;-75
2021/08/21 06:41:52;;;;;;;0.40;0.20;;;16.80;99.90;;;;;;5070470;28;20760;-75
2021/08/21 06:44:17;;;;;;;0.40;0.20;;;16.80;99.90;;;;;;5053298;28;20376;-75
2021/08/21 06:46:43;;;;;;;0.40;0.20;;;16.90;99.90;;;;;;5070383;28;20408;-75
2021/08/21 06:49:08;;;;;;;0.40;0.30;;;17.10;99.90;;;;;;5070885;28;20493;-75
2021/08/21 06:51:34;;;;;;;0.40;0.30;;;17.10;99.90;;;;;;5070621;28;20384;-75
2021/08/21 06:54:00;;;;;;;0.40;0.20;;;17.20;99.90;;;;;;5070739;28;20457;-75
2021/08/21 06:56:25;;;;;;;0.40;0.30;;;17.30;99.90;;;;;;5070582;28;20376;-72
2021/08/21 06:58:51;;;;;;;0.40;0.30;;;17.40;99.90;;;;;;5070240;28;20380;-74
2021/08/21 07:01:17;;;;;;;0.40;0.20;;;17.40;99.90;;;;;;5070606;28;20778;-74
2021/08/21 07:03:42;;;;;;;0.40;0.20;;;17.50;99.90;;;;;;5070329;28;20399;-74
2021/08/21 07:06:08;;;;;;;0.40;0.30;;;17.60;99.90;;;;;;5070040;28;20871;-74
2021/08/21 07:08:34;;;;;;;0.40;0.20;;;17.70;99.90;;;;;;5070374;28;20760;-74
2021/08/21 07:10:59;;;;;;;0.40;0.30;;;17.70;99.90;;;;;;5070280;28;20722;-74
2021/08/21 07:13:25;;;;;;;0.40;0.30;;;17.80;99.90;;;;;;5070533;28;20919;-73
2021/08/21 07:15:52;;;;;;;0.40;0.30;;;17.90;99.90;;;;;;5070052;28;20437;-74
2021/08/21 07:18:18;;;;;;;0.40;0.20;;;17.90;99.90;;;;;;5070747;28;20751;-73
2021/08/21 07:20:43;;;;;;;0.40;0.30;;;18.00;99.90;;;;;;5069856;28;20391;-74
2021/08/21 07:23:09;;;;;;;0.40;0.30;;;18.10;99.90;;;;;;5070492;28;20403;-74
2021/08/21 07:25:35;;;;;;;0.40;0.30;;;18.20;99.90;;;;;;5071929;28;20545;-74
2021/08/21 07:28:01;;;;;;;0.40;0.30;;;18.20;99.90;;;;;;5073548;28;20990;-73
2021/08/21 07:30:27;;;;;;;0.40;0.30;;;18.30;99.90;;;;;;5074226;28;20404;-73
2021/08/21 07:32:53;;;;;;;0.40;0.30;;;18.30;99.90;;;;;;5073144;28;20433;-73
2021/08/21 07:35:18;;;;;;;0.40;0.20;;;18.50;99.90;;;;;;5073784;28;20453;-73
2021/08/21 07:37:44;;;;;;;0.40;0.30;;;18.50;99.90;;;;;;5073092;28;20419;-73
2021/08/21 07:40:10;;;;;;;0.40;0.20;;;18.60;99.90;;;;;;5073629;28;20461;-73
2021/08/21 07:42:36;;;;;;;0.40;0.20;;;18.70;99.90;;;;;;5073879;28;20508;-73
2021/08/21 07:45:03;;;;;;;0.40;0.20;;;18.80;99.90;;;;;;5073275;28;20466;-73
2021/08/21 07:47:29;;;;;;;0.40;0.30;;;18.90;99.90;;;;;;5073929;28;20383;-73
2021/08/21 07:49:54;;;;;;;0.40;0.30;;;19.20;99.90;;;;;;5073543;28;20463;-74
2021/08/21 07:52:21;;;;;;;0.40;0.30;;;19.40;99.90;;;;;;5073580;28;20421;-74
2021/08/21 07:54:47;;;;;;;0.40;0.30;;;19.40;99.90;;;;;;5072924;28;20391;-73
2021/08/21 07:57:12;;;;;;;0.40;0.30;;;19.50;99.90;;;;;;5073456;28;20376;-73
2021/08/21 07:59:38;;;;;;;0.40;0.30;;;19.70;99.90;;;;;;5073339;28;20414;-74
2021/08/21 08:02:05;;;;;;;0.40;0.20;;;19.70;99.90;;;;;;5078534;28;20396;-74
2021/08/21 08:04:31;;;;;;;0.40;0.20;;;19.80;99.90;;;;;;5089525;28;20382;-73
2021/08/21 08:06:57;;;;;;;0.40;0.30;;;20.00;99.90;;;;;;5075230;28;20389;-74
2021/08/21 08:09:22;;;;;;;0.40;0.30;;;19.90;99.90;;;;;;5073628;28;20420;-73
2021/08/21 08:11:48;;;;;;;0.40;0.30;;;20.00;99.90;;;;;;5089203;28;20378;-74
2021/08/21 08:14:14;;;;;;;0.40;0.20;;;20.00;99.90;;;;;;5079344;28;20438;-73
2021/08/21 08:16:39;;;;;;;0.40;0.20;;;20.10;99.90;;;;;;5083680;28;20856;-73
2021/08/21 08:19:05;;;;;;;0.40;0.20;;;20.10;99.90;;;;;;5085736;28;20524;-73
2021/08/21 08:21:31;;;;;;;0.40;0.20;;;20.10;99.90;;;;;;5075934;28;20491;-73
2021/08/21 08:23:59;;;;;;;0.40;0.20;;;20.20;99.90;;;;;;5088838;28;20480;-72
2021/08/21 08:26:28;;;;;;;0.40;0.20;;;20.30;99.90;;;;;;5080232;28;20888;-75
2021/08/21 08:28:53;;;;;;;0.50;0.40;;;20.50;99.90;;;;;;5080609;28;20411;-76
2021/08/21 08:31:19;;;;;;;0.40;0.20;;;20.50;99.90;;;;;;5080570;28;20390;-75
2021/08/21 08:33:45;;;;;;;0.40;0.30;;;20.60;99.90;;;;;;5080926;28;20882;-75
2021/08/21 08:36:13;;;;;;;0.40;0.30;;;20.60;99.90;;;;;;5084994;28;20408;-77
2021/08/21 08:38:39;;;;;;;0.40;0.20;;;20.60;99.90;;;;;;5084571;28;20399;-77
2021/08/21 08:41:11;;;;;;;0.40;0.30;;;20.70;99.90;;;;;;5084279;28;20391;-77
2021/08/21 08:43:40;;;;;;;0.50;0.50;;;20.80;99.90;;;;;;5081234;28;20436;-77
2021/08/21 08:46:06;;;;;;;0.40;0.30;;;20.80;99.90;;;;;;5087596;28;20382;-77
2021/08/21 08:48:35;;;;;;;0.40;0.20;;;20.70;99.90;;;;;;5075823;28;20416;-76
2021/08/21 08:51:01;;;;;;;0.40;0.30;;;20.70;99.90;;;;;;5084453;28;20399;-76
2021/08/21 08:53:26;;;;;;;0.40;0.30;;;20.80;99.90;;;;;;5072177;28;20752;-74
2021/08/21 08:55:52;;;;;;;0.40;0.20;;;21.00;99.90;;;;;;5071696;28;20376;-76
2021/08/21 08:58:18;;;;;;;0.40;0.30;;;21.10;99.90;;;;;;5072600;28;20906;-77
2021/08/21 09:00:43;;;;;;;0.40;0.20;;;21.10;99.90;;;;;;5078197;28;20380;-77
2021/08/21 09:03:38;;;;;;;0.40;0.30;;;21.10;99.90;;;;;;5083472;28;20386;-76
2021/08/21 09:06:04;;;;;;;0.40;0.20;;;21.10;99.90;;;;;;5067967;28;20397;-77
2021/08/21 09:08:32;;;;;;;0.40;0.30;;;21.20;99.90;;;;;;5090961;28;20406;-77
2021/08/21 09:11:00;;;;;;;0.40;0.30;;;21.30;99.90;;;;;;5091751;28;20858;-76
2021/08/21 09:13:26;;;;;;;0.40;0.20;;;21.30;99.90;;;;;;5092522;28;20370;-77
2021/08/21 09:15:59;;;;;;;0.40;0.30;;;21.40;99.90;;;;;;5091860;28;20385;-77
2021/08/21 09:18:26;;;;;;;0.40;0.30;;;21.50;99.90;;;;;;5091969;28;20481;-77
2021/08/21 09:20:56;;;;;;;0.60;0.60;;;21.70;99.90;;;;;;5091832;28;20465;-77
2021/08/21 09:23:22;;;;;;;0.40;0.20;;;21.80;99.90;;;;;;5090856;28;20727;-77
2021/08/21 09:25:50;;;;;;;0.40;0.20;;;21.70;99.90;;;;;;5091744;28;20381;-76
2021/08/21 09:28:22;;;;;;;0.40;0.20;;;21.80;99.90;;;;;;5092031;28;20500;-78
2021/08/21 09:30:48;;;;;;;0.40;0.20;;;22.00;99.90;;;;;;5092185;28;20418;-79
2021/08/21 09:33:18;;;;;;;0.40;0.20;;;22.10;99.90;;;;;;5083482;28;20400;-77
2021/08/21 09:35:44;;;;;;;0.40;0.20;;;22.10;99.90;;;;;;5072625;28;20404;-77
2021/08/21 09:38:10;;;;;;;0.40;0.20;;;22.20;99.90;;;;;;5081720;28;20910;-77
2021/08/21 09:40:38;;;;;;;0.40;0.30;;;22.20;99.90;;;;;;5091842;28;20421;-78
2021/08/21 09:43:05;;;;;;;0.40;0.20;;;22.20;99.90;;;;;;5091328;28;20431;-76
2021/08/21 09:45:35;;;;;;;0.40;0.25;;;22.20;99.90;;;;;;5091189;28;20733;-76
2021/08/21 09:48:07;;;;;;;0.40;0.20;;;22.20;99.90;;;;;;5090606;28;20414;-77
2021/08/21 09:50:41;;;;;;;0.40;0.20;;;22.40;99.90;;;;;;5091397;28;20378;-76
2021/08/21 09:53:09;;;;;;;0.40;0.20;;;22.40;99.90;;;;;;5081459;28;20482;-77
2021/08/21 09:55:35;;;;;;;0.40;0.30;;;22.40;99.90;;;;;;5091672;28;20382;-76
2021/08/21 09:58:17;;;;;;;0.40;0.20;;;22.50;99.90;;;;;;5091530;28;20397;-79
2021/08/21 10:00:44;;;;;;;0.40;0.30;;;22.60;99.90;;;;;;5091582;28;20389;-78
2021/08/21 10:03:10;;;;;;;0.40;0.20;;;22.70;99.90;;;;;;5090715;28;20382;-78
2021/08/21 10:05:36;;;;;;;0.40;0.30;;;22.90;99.90;;;;;;5090356;28;20445;-78
2021/08/21 10:08:08;;;;;;;0.40;0.20;;;22.80;99.90;;;;;;5080311;28;20411;-77
2021/08/21 10:10:36;;;;;;;0.40;0.30;;;22.90;99.90;;;;;;5071224;28;20826;-79
2021/08/21 10:13:17;;;;;;;0.40;0.30;;;23.10;99.90;;;;;;5070760;28;20401;-76
2021/08/21 10:15:45;;;;;;;0.40;0.30;;;23.40;99.90;;;;;;5071410;28;20890;-80
2021/08/21 10:18:10;;;;;;;0.40;0.30;;;23.40;99.90;;;;;;5070076;28;20690;-81
2021/08/21 10:20:38;;;;;;;0.40;0.30;;;23.50;99.90;;;;;;5071161;28;20467;-81
2021/08/21 10:23:12;;;;;;;0.40;0.30;;;23.30;99.90;;;;;;5070458;28;20913;-82
2021/08/21 10:25:45;;;;;;;0.40;0.20;;;23.30;99.90;;;;;;5071003;28;20425;-80
2021/08/21 10:28:13;;;;;;;0.40;0.20;;;23.50;99.90;;;;;;5070610;28;20461;-81
2021/08/21 10:30:49;;;;;;;0.40;0.20;;;23.50;99.90;;;;;;5070922;28;20376;-81
2021/08/21 10:33:15;;;;;;;0.40;0.20;;;23.60;99.90;;;;;;5075772;28;20433;-81
2021/08/21 10:35:48;;;;;;;0.40;0.20;;;23.70;99.90;;;;;;5069422;28;20392;-82
2021/08/21 10:38:32;;;;;;;0.40;0.30;;;23.90;99.90;;;;;;5070657;28;20399;-79
2021/08/21 10:41:26;;;;;;;0.40;0.30;;;24.00;99.90;;;;;;5070372;28;20387;-79
2021/08/21 10:43:55;;;;;;;0.40;0.30;;;24.00;99.90;;;;;;5070622;28;20384;-81
2021/08/21 10:46:29;;;;;;;0.40;0.20;;;24.10;99.90;;;;;;5069057;28;20431;-75
2021/08/21 10:48:59;;;;;;;0.40;0.20;;;24.20;99.90;;;;;;5069968;28;20465;-80
2021/08/21 10:51:36;;;;;;;0.40;0.30;;;24.30;99.90;;;;;;5070485;28;20467;-81
2021/08/21 10:54:21;;;;;;;0.40;0.20;;;24.40;99.90;;;;;;5069955;28;20469;-82
2021/08/21 10:56:47;;;;;;;0.40;0.20;;;24.40;99.90;;;;;;5070409;28;20376;-82
2021/08/21 10:59:12;;;;;;;0.40;0.20;;;24.50;99.90;;;;;;5069945;28;20383;-83
2021/08/21 11:01:38;;;;;;;0.40;0.40;;;24.70;99.90;;;;;;5073148;28;20925;-77
2021/08/21 11:04:04;;;;;;;0.40;0.20;;;24.70;99.90;;;;;;5073621;28;20395;-81
2021/08/21 11:06:35;;;;;;;0.40;0.30;;;25.00;99.90;;;;;;5073535;28;20856;-72
2021/08/21 11:09:11;;;;;;;0.40;0.20;;;25.10;99.90;;;;;;5073744;28;20509;-81
2021/08/21 11:11:47;;;;;;;0.40;0.20;;;25.00;99.90;;;;;;5074452;28;20391;-79
2021/08/21 11:14:24;;;;;;;0.40;0.30;;;25.10;99.10;;;;;;5073896;28;20466;-78
2021/08/21 11:16:53;;;;;;;0.40;0.20;;;25.20;99.70;;;;;;5072970;28;20922;-78
2021/08/21 11:19:47;;;;;;;0.40;0.20;;;25.40;99.20;;;;;;5086643;28;20480;-80
2021/08/21 11:22:17;;;;;;;0.40;0.30;;;25.40;98.80;;;;;;5091710;28;20414;-78
2021/08/21 11:24:51;;;;;;;0.40;0.20;;;25.50;98.40;;;;;;5094620;28;20400;-82
2021/08/21 11:27:31;;;;;;;0.40;0.20;;;25.90;99.30;;;;;;5093980;28;20519;-81
2021/08/21 11:30:09;;;;;;;0.40;0.20;;;25.90;96.60;;;;;;5093517;28;20754;-79
2021/08/21 11:32:44;;;;;;;0.40;0.30;;;26.00;98.70;;;;;;5092259;28;20382;-80
2021/08/21 11:35:19;;;;;;;0.40;0.30;;;26.20;95.80;;;;;;5093364;28;20382;-75
2021/08/21 11:38:20;;;;;;;0.40;0.20;;;26.50;94.30;;;;;;5094375;28;20409;-81
2021/08/21 11:40:50;;;;;;;0.40;0.30;;;26.80;94.30;;;;;;5090699;28;20402;-80
2021/08/21 11:43:19;;;;;;;0.40;0.20;;;27.10;92.70;;;;;;5084446;28;21068;-80
2021/08/21 11:45:45;;;;;;;0.40;0.30;;;27.20;92.50;;;;;;5093764;28;20445;-79
2021/08/21 11:48:11;;;;;;;0.40;0.20;;;27.50;91.60;;;;;;5091646;28;20818;-80
2021/08/21 11:50:38;;;;;;;0.40;0.20;;;27.50;87.10;;;;;;5073711;28;20375;-75
2021/08/21 11:53:13;;;;;;;0.40;0.30;;;27.40;88.40;;;;;;5073146;28;20399;-77
2021/08/21 11:55:39;;;;;;;0.40;0.20;;;27.60;89.50;;;;;;5073643;28;20376;-78
2021/08/21 11:58:06;;;;;;;0.40;0.30;;;27.70;89.20;;;;;;5073485;28;20388;-81
2021/08/21 12:00:41;;;;;;;0.40;0.30;;;27.60;87.10;;;;;;5073374;28;20460;-78
2021/08/21 12:03:09;;;;;;;0.40;0.20;;;27.60;90.40;;;;;;5075083;28;20856;-78
2021/08/21 12:05:46;;;;;;;0.40;0.30;;;27.20;90.10;;;;;;5075537;28;20387;-80
2021/08/21 12:08:23;;;;;;;0.40;0.30;;;27.50;90.20;;;;;;5070933;28;20472;-70
2021/08/21 12:10:54;;;;;;;0.40;0.20;;;27.60;90.20;;;;;;5067342;28;20395;-76
2021/08/21 12:13:37;;;;;;;0.40;0.30;;;27.80;90.50;;;;;;5069138;28;20491;-75
2021/08/21 12:16:12;;;;;;;0.40;0.20;;;27.90;90.40;;;;;;5066485;28;20407;-75
2021/08/21 12:18:40;;;;;;;0.40;0.30;;;28.10;90.90;;;;;;5066734;28;20423;-73
2021/08/21 12:21:08;;;;;;;0.40;0.30;;;28.20;88.80;;;;;;5068517;28;20386;-77
2021/08/21 12:23:35;;;;;;;0.40;0.20;;;28.40;88.50;;;;;;5070112;28;20625;-78
2021/08/21 12:26:02;;;;;;;0.40;0.20;;;28.20;90.50;;;;;;5066480;28;20381;-69
2021/08/21 12:28:41;;;;;;;0.40;0.30;;;28.20;89.60;;;;;;5071096;28;20420;-77
2021/08/21 12:31:09;;;;;;;0.40;0.20;;;28.20;89.80;;;;;;5067345;28;20384;-74
2021/08/21 12:33:36;;;;;;;0.40;0.20;;;28.00;87.20;;;;;;5068201;28;20390;-76
2021/08/21 12:36:15;;;;;;;0.40;0.30;;;28.10;88.20;;;;;;5064600;28;20456;-79
2021/08/21 12:39:00;;;;;;;0.40;0.30;;;28.40;84.10;;;;;;5070849;28;20382;-72
2021/08/21 12:41:27;;;;;;;0.40;0.30;;;28.30;81.60;;;;;;5070464;28;20460;-74
2021/08/21 12:44:16;;;;;;;0.40;0.20;;;28.60;83.10;;;;;;5063982;28;20489;-73
2021/08/21 12:46:56;;;;;;;0.40;0.20;;;28.80;83.70;;;;;;5064494;28;20390;-71
2021/08/21 12:49:29;;;;;;;0.40;0.20;;;29.30;82.80;;;;;;5067413;28;20657;-71
2021/08/21 12:51:57;;;;;;;0.40;0.20;;;29.20;80.40;;;;;;5062992;28;20497;-76